Time;durP1;ratioP1;P1;durP2;ratioP2;P2;SDS_P1;SDS_P2;PMS_P1;PMS_P2;Temp;Humidity;BMP_temperature;BMP_pressure;BME280_temperature;BME280_humidity;BME280_pressure;Samples;Min_cycle;Max_cycle;Signal;HPM_P1;HPM_P2
2022/05/07 00:01:07;;;;;;;7.27;4.60;;;;;;;18.86;34.40;95577.88;5091572;28;20425;-56
2022/05/07 00:03:35;;;;;;;8.50;4.20;;;;;;;18.96;34.07;95577.69;5091510;28;20543;-58
2022/05/07 00:06:02;;;;;;;8.83;4.17;;;;;;;18.49;34.92;95562.00;5091644;28;20437;-59
2022/05/07 00:08:28;;;;;;;8.03;4.00;;;;;;;18.58;34.33;95583.34;5074276;28;20504;-57
2022/05/07 00:10:55;;;;;;;5.40;3.77;;;;;;;18.61;34.57;95586.22;5091699;28;20506;-56
2022/05/07 00:13:22;;;;;;;5.87;3.40;;;;;;;18.83;33.92;95578.44;5091901;28;20464;-56
2022/05/07 00:18:34;;;;;;;8.87;3.90;;;;;;;18.87;33.88;95568.81;5091753;28;20445;-58
2022/05/07 00:21:02;;;;;;;7.07;3.83;;;;;;;18.85;34.07;95573.63;5090915;28;20452;-59
2022/05/07 00:23:30;;;;;;;7.47;3.93;;;;;;;18.89;34.60;95577.28;5091773;28;20453;-55
2022/05/07 00:25:58;;;;;;;7.63;4.00;;;;;;;18.67;34.53;95569.16;5090845;28;20449;-59
2022/05/07 00:28:25;;;;;;;9.67;4.23;;;;;;;18.64;34.52;95553.81;5092250;28;20441;-57
2022/05/07 00:30:52;;;;;;;8.33;3.97;;;;;;;18.72;34.27;95571.72;5091440;28;20425;-60
2022/05/07 00:33:19;;;;;;;11.23;3.80;;;;;;;18.07;34.67;95570.78;5091659;28;20434;-57
2022/05/07 00:35:46;;;;;;;6.20;3.73;;;;;;;18.57;34.33;95576.47;5091095;28;20441;-58
2022/05/07 00:38:13;;;;;;;7.70;3.70;;;;;;;18.61;34.18;95570.28;5091861;28;20441;-60
2022/05/07 00:40:40;;;;;;;6.23;2.97;;;;;;;18.53;34.01;95568.31;5091248;28;20441;-58
2022/05/07 00:43:08;;;;;;;7.97;3.53;;;;;;;18.49;34.59;95572.63;5091571;28;21684;-57
2022/05/07 00:45:35;;;;;;;9.33;3.70;;;;;;;17.92;35.46;95570.19;5091409;28;20805;-58
2022/05/07 00:48:02;;;;;;;8.07;3.37;;;;;;;18.48;34.34;95560.44;5092126;28;20440;-56
2022/05/07 00:53:15;;;;;;;5.90;2.90;;;;;;;18.35;34.61;95560.31;5091453;28;20467;-57
2022/05/07 00:55:44;;;;;;;6.10;3.43;;;;;;;18.05;34.83;95561.53;5072699;28;20821;-62
2022/05/07 00:58:11;;;;;;;4.43;3.20;;;;;;;17.83;34.74;95561.28;5073075;28;20437;-56
2022/05/07 01:00:38;;;;;;;6.50;3.20;;;;;;;17.91;34.53;95550.06;5090432;28;20480;-57
2022/05/07 01:03:06;;;;;;;8.23;3.70;;;;;;;18.46;34.06;95562.59;5072804;28;20473;-57
2022/05/07 01:05:33;;;;;;;7.73;3.30;;;;;;;18.34;34.23;95559.53;5072503;28;20429;-58
2022/05/07 01:08:01;;;;;;;7.83;3.20;;;;;;;18.41;34.43;95559.19;5073158;28;20979;-56
2022/05/07 01:10:30;;;;;;;8.67;4.10;;;;;;;17.99;34.85;95558.16;5072267;28;20963;-59
2022/05/07 01:12:57;;;;;;;8.50;4.27;;;;;;;17.72;35.61;95567.78;5072920;28;20430;-59
2022/05/07 01:15:26;;;;;;;5.73;4.10;;;;;;;18.19;34.56;95562.41;5072326;28;20437;-59
2022/05/07 01:17:53;;;;;;;6.20;3.93;;;;;;;18.00;34.40;95564.25;5072585;28;20455;-57
2022/05/07 01:20:21;;;;;;;9.63;4.17;;;;;;;18.32;33.80;95559.03;5071946;28;20479;-57
2022/05/07 01:22:49;;;;;;;12.93;3.90;;;;;;;17.65;34.43;95562.03;5072539;28;20473;-58
2022/05/07 01:25:23;;;;;;;6.63;3.80;;;;;;;17.67;34.51;95567.84;5071898;28;20477;-61
2022/05/07 01:27:51;;;;;;;6.87;3.80;;;;;;;17.49;35.19;95563.28;5072244;28;20436;-60
2022/05/07 01:30:18;;;;;;;8.93;4.00;;;;;;;17.99;34.29;95565.34;5072160;28;20999;-59
2022/05/07 01:32:46;;;;;;;5.27;3.40;;;;;;;18.30;33.78;95565.72;5090677;28;20963;-55
2022/05/07 01:35:13;;;;;;;9.77;4.37;;;;;;;18.14;32.96;95565.91;5090235;28;20441;-59
2022/05/07 01:37:42;;;;;;;10.03;4.70;;;;;;;18.29;32.91;95572.06;5071719;28;20502;-59
2022/05/07 01:40:11;;;;;;;7.40;3.53;;;;;;;17.90;33.42;95569.69;5087544;28;21330;-57
2022/05/07 01:42:40;;;;;;;5.83;4.10;;;;;;;18.23;33.45;95568.69;5061201;28;20501;-58
2022/05/07 01:45:09;;;;;;;8.43;4.30;;;;;;;18.18;33.88;95566.13;5051742;28;20438;-54
2022/05/07 01:50:26;;;;;;;6.60;3.80;;;;;;;17.88;33.48;95574.50;5051990;28;20430;-59
2022/05/07 01:52:53;;;;;;;5.10;3.43;;;;;;;18.24;33.24;95562.34;5052087;28;20472;-55
2022/05/07 01:55:20;;;;;;;8.27;3.40;;;;;;;18.24;33.42;95559.69;5051486;28;20511;-55
2022/05/07 01:57:52;;;;;;;5.70;3.30;;;;;;;18.31;33.06;95552.16;5052168;28;20442;-55
2022/05/07 02:00:21;;;;;;;8.43;3.60;;;;;;;18.00;33.95;95558.94;5051456;28;21035;-62
2022/05/07 02:02:48;;;;;;;9.60;3.73;;;;;;;17.47;34.69;95550.31;5051727;28;20843;-58
2022/05/07 02:05:20;;;;;;;8.70;3.67;;;;;;;16.97;34.92;95564.06;5051264;28;20473;-60
2022/05/07 02:07:47;;;;;;;8.83;3.83;;;;;;;17.17;34.93;95566.47;5069628;28;20430;-57
2022/05/07 02:10:15;;;;;;;10.60;4.07;;;;;;;17.04;35.16;95567.94;5051157;28;21012;-57
2022/05/07 02:12:42;;;;;;;5.93;3.40;;;;;;;17.00;34.73;95564.28;5069552;28;20452;-55
2022/05/07 02:15:10;;;;;;;6.97;3.47;;;;;;;17.44;34.39;95565.97;5051532;28;20526;-53
2022/05/07 02:17:37;;;;;;;6.03;3.73;;;;;;;17.23;34.72;95566.16;5051638;28;20843;-55
2022/05/07 02:20:06;;;;;;;6.30;4.23;;;;;;;17.33;34.56;95565.28;5051388;28;20516;-57
2022/05/07 02:22:33;;;;;;;7.90;3.50;;;;;;;17.40;34.23;95549.84;5051594;28;20486;-56
2022/05/07 02:25:00;;;;;;;6.17;4.20;;;;;;;17.31;34.90;95556.03;5050884;28;20887;-58
2022/05/07 02:27:27;;;;;;;6.77;3.67;;;;;;;17.36;34.15;95553.31;5051251;28;20446;-56
2022/05/07 02:29:58;;;;;;;7.37;3.77;;;;;;;17.12;34.68;95567.34;5051083;28;20815;-57
2022/05/07 02:32:27;;;;;;;7.43;3.87;;;;;;;17.54;35.16;95560.56;5051638;28;21016;-57
2022/05/07 02:34:55;;;;;;;12.80;5.93;;;;;;;17.62;34.20;95563.41;5050776;28;20465;-52
2022/05/07 02:37:30;;;;;;;13.17;6.57;;;;;;;16.79;35.35;95554.94;5051037;28;20446;-58
2022/05/07 02:39:57;;;;;;;11.93;6.57;;;;;;;17.30;35.24;95565.06;5050811;28;20457;-50
2022/05/07 02:42:39;;;;;;;14.63;6.67;;;;;;;17.42;34.87;95555.66;5051157;28;20478;-55
2022/05/07 02:45:18;;;;;;;11.20;6.33;;;;;;;17.44;35.08;95560.66;5050720;28;20446;-56
2022/05/07 02:47:48;;;;;;;11.47;6.37;;;;;;;17.56;34.57;95566.38;5051124;28;20454;-54
2022/05/07 02:50:18;;;;;;;11.23;6.00;;;;;;;17.79;33.97;95565.59;5050577;28;20442;-56
2022/05/07 02:52:45;;;;;;;12.83;6.70;;;;;;;17.91;33.90;95566.75;5051405;28;20438;-62
2022/05/07 02:55:12;;;;;;;10.47;6.33;;;;;;;17.57;34.88;95562.66;5068651;28;20439;-58
2022/05/07 02:57:44;;;;;;;13.47;5.67;;;;;;;17.44;34.49;95560.66;5051212;28;20513;-57
2022/05/07 03:00:11;;;;;;;11.43;5.87;;;;;;;17.46;35.19;95579.72;5050547;28;21083;-54
2022/05/07 03:02:38;;;;;;;12.47;6.13;;;;;;;17.55;35.72;95580.72;5050958;28;20486;-59
2022/05/07 03:05:07;;;;;;;11.00;5.53;;;;;;;17.51;35.03;95566.44;5050266;28;20446;-58
2022/05/07 03:07:33;;;;;;;15.27;5.20;;;;;;;17.17;36.10;95575.22;5069238;28;20442;-59
2022/05/07 03:10:08;;;;;;;9.20;5.67;;;;;;;17.45;35.66;95580.78;5050429;28;20449;-54
2022/05/07 03:12:35;;;;;;;11.97;5.27;;;;;;;17.34;35.97;95574.00;5068901;28;20830;-60
2022/05/07 03:15:04;;;;;;;12.60;5.57;;;;;;;17.30;36.17;95581.72;5050303;28;21300;-56
2022/05/07 03:17:34;;;;;;;9.73;4.80;;;;;;;16.94;36.94;95578.63;5051069;28;20438;-56
2022/05/07 03:20:06;;;;;;;11.23;5.40;;;;;;;17.27;35.73;95582.28;5051157;28;20873;-59
2022/05/07 03:22:33;;;;;;;13.23;5.40;;;;;;;17.19;36.27;95577.59;5068848;28;20505;-60
2022/05/07 03:25:00;;;;;;;11.57;5.13;;;;;;;17.02;36.59;95580.66;5068626;28;20445;-60
2022/05/07 03:27:32;;;;;;;10.50;5.50;;;;;;;16.79;36.78;95572.66;5051215;28;20441;-58
2022/05/07 03:30:00;;;;;;;9.87;5.37;;;;;;;16.93;37.57;95582.31;5050313;28;20444;-58
2022/05/07 03:32:35;;;;;;;12.83;5.17;;;;;;;17.23;36.80;95560.88;5050966;28;20506;-58
2022/05/07 03:35:03;;;;;;;7.67;4.93;;;;;;;17.11;36.77;95573.72;5068567;28;20495;-59
2022/05/07 03:37:30;;;;;;;9.50;4.80;;;;;;;17.17;36.64;95577.88;5068794;28;20573;-58
2022/05/07 03:39:57;;;;;;;7.30;4.87;;;;;;;16.99;36.60;95575.94;5050456;28;20475;-55
2022/05/07 03:42:28;;;;;;;13.20;5.37;;;;;;;17.02;37.28;95559.47;5050550;28;20473;-61
2022/05/07 03:44:55;;;;;;;7.77;5.00;;;;;;;17.08;37.55;95574.25;5050387;28;20957;-61
2022/05/07 03:47:23;;;;;;;9.00;4.67;;;;;;;16.63;38.04;95564.06;5051122;28;20438;-56
2022/05/07 03:49:50;;;;;;;10.03;5.37;;;;;;;17.20;36.74;95587.94;5050534;28;20438;-62
2022/05/07 03:55:07;;;;;;;9.03;5.00;;;;;;;17.04;37.11;95593.66;5050338;28;20457;-58
2022/05/07 03:57:35;;;;;;;11.63;6.00;;;;;;;17.07;36.79;95577.97;5068753;28;20898;-58
2022/05/07 04:00:03;;;;;;;12.30;7.17;;;;;;;17.19;36.79;95594.28;5050059;28;20465;-53
2022/05/07 04:02:39;;;;;;;12.50;8.87;;;;;;;17.12;37.49;95593.03;5071381;28;20501;-57
2022/05/07 04:05:14;;;;;;;13.33;9.67;;;;;;;16.84;37.41;95578.69;5053417;28;20449;-56
2022/05/07 04:07:43;;;;;;;15.20;9.70;;;;;;;17.05;37.99;95595.22;5054326;28;20434;-59
2022/05/07 04:10:12;;;;;;;12.73;9.00;;;;;;;17.25;37.38;95595.03;5053982;28;20464;-55
2022/05/07 04:12:48;;;;;;;17.17;8.87;;;;;;;16.97;38.29;95593.19;5053954;28;20444;-58
2022/05/07 04:15:19;;;;;;;12.37;7.97;;;;;;;16.88;38.76;95595.59;5053047;28;20449;-61
2022/05/07 04:17:50;;;;;;;14.57;7.80;;;;;;;17.09;38.21;95591.75;5054026;28;20443;-57
2022/05/07 04:20:17;;;;;;;15.47;7.60;;;;;;;17.18;38.13;95598.00;5071328;28;20480;-62
2022/05/07 04:22:48;;;;;;;12.20;6.93;;;;;;;17.32;37.44;95589.41;5053122;28;20483;-55
2022/05/07 04:25:15;;;;;;;18.17;6.73;;;;;;;17.20;37.99;95603.81;5053175;28;20442;-58
2022/05/07 04:27:43;;;;;;;12.53;6.80;;;;;;;17.28;38.15;95596.34;5072064;28;20435;-62
2022/05/07 04:30:11;;;;;;;14.80;8.90;;;;;;;17.23;38.07;95597.16;5053170;28;20504;-57
2022/05/07 04:32:38;;;;;;;14.80;10.07;;;;;;;17.07;38.66;95599.16;5053636;28;20448;-63
2022/05/07 04:35:08;;;;;;;19.80;10.47;;;;;;;17.32;37.68;95595.47;5071025;28;20968;-60
2022/05/07 04:37:37;;;;;;;13.57;9.50;;;;;;;17.04;39.27;95599.72;5053586;28;20805;-59
2022/05/07 04:40:05;;;;;;;11.97;6.57;;;;;;;17.12;38.63;95596.47;5053020;28;20834;-55
2022/05/07 04:42:40;;;;;;;11.70;5.53;;;;;;;17.11;38.31;95594.09;5053255;28;20549;-61
2022/05/07 04:45:08;;;;;;;9.20;5.37;;;;;;;17.51;38.09;95596.38;5052479;28;20449;-55
2022/05/07 04:47:56;;;;;;;11.13;5.07;;;;;;;17.66;37.60;95588.28;5053315;28;20438;-59
2022/05/07 04:50:29;;;;;;;11.27;6.03;;;;;;;17.43;38.24;95596.16;5052679;28;20454;-58
2022/05/07 04:53:09;;;;;;;11.27;5.40;;;;;;;17.21;38.79;95597.44;5053365;28;20461;-58
2022/05/07 04:55:38;;;;;;;9.20;4.77;;;;;;;17.52;38.06;95589.19;5052687;28;20441;-58
2022/05/07 04:58:06;;;;;;;11.53;5.70;;;;;;;18.12;37.13;95594.59;5053220;28;20448;-61
2022/05/07 05:00:36;;;;;;;8.40;4.87;;;;;;;17.19;37.93;95596.94;5052354;28;20481;-56
2022/05/07 05:03:13;;;;;;;12.13;5.03;;;;;;;17.09;39.19;95604.97;5052750;28;20474;-57
2022/05/07 05:05:46;;;;;;;11.50;5.40;;;;;;;17.11;38.11;95599.41;5053055;28;20496;-59
2022/05/07 05:08:24;;;;;;;6.67;5.23;;;;;;;17.22;38.64;95591.06;5052775;28;20870;-62
2022/05/07 05:10:55;;;;;;;9.70;5.40;;;;;;;16.56;39.95;95597.97;5051976;28;21026;-58
2022/05/07 05:13:24;;;;;;;7.13;6.00;;;;;;;16.35;40.54;95607.06;5054020;28;20995;-61
2022/05/07 05:15:51;;;;;;;9.33;5.83;;;;;;;16.89;40.22;95597.22;5051160;28;21147;-56
2022/05/07 05:18:33;;;;;;;9.63;5.50;;;;;;;16.92;39.58;95601.94;5051607;28;20454;-58
2022/05/07 05:21:01;;;;;;;8.47;5.67;;;;;;;17.23;38.63;95603.25;5051225;28;20823;-60
2022/05/07 05:23:47;;;;;;;14.93;6.17;;;;;;;17.08;39.81;95600.72;5069271;28;20595;-59
2022/05/07 05:26:15;;;;;;;8.23;5.27;;;;;;;17.39;38.96;95579.28;5069067;28;20446;-59
2022/05/07 05:28:54;;;;;;;10.27;5.67;;;;;;;17.33;39.38;95604.22;5062611;28;20789;-57
2022/05/07 05:31:23;;;;;;;10.30;5.97;;;;;;;17.00;40.06;95596.06;5050624;28;20446;-59
2022/05/07 05:34:17;;;;;;;7.13;5.03;;;;;;;17.28;40.37;95598.97;5066688;28;21038;-60
2022/05/07 05:36:49;;;;;;;12.97;5.93;;;;;;;17.29;39.70;95589.94;5052395;28;20445;-62
2022/05/07 05:39:17;;;;;;;9.00;5.77;;;;;;;17.56;39.21;95595.53;5050998;28;20461;-52
2022/05/07 05:41:46;;;;;;;11.23;5.70;;;;;;;18.21;38.41;95592.06;5051085;28;21013;-53
2022/05/07 05:44:14;;;;;;;8.83;5.90;;;;;;;17.79;39.92;95594.75;5052059;28;20482;-59
2022/05/07 05:46:42;;;;;;;12.23;5.60;;;;;;;16.69;40.37;95597.38;5051798;28;20438;-60
2022/05/07 05:49:10;;;;;;;11.13;5.43;;;;;;;17.68;40.06;95594.06;5052065;28;20446;-58
2022/05/07 05:51:39;;;;;;;9.23;5.93;;;;;;;17.77;38.91;95591.59;5051158;28;20972;-60
2022/05/07 05:54:06;;;;;;;9.40;5.27;;;;;;;18.36;38.53;95594.53;5051923;28;20433;-60
2022/05/07 05:56:33;;;;;;;11.27;5.67;;;;;;;17.90;39.50;95596.22;5069254;28;20472;-56
2022/05/07 05:59:02;;;;;;;7.33;4.97;;;;;;;17.96;39.36;95611.75;5069517;28;20502;-58
2022/05/07 06:01:38;;;;;;;10.30;6.30;;;;;;;18.97;37.36;95600.53;5069034;28;20532;-60
2022/05/07 06:04:16;;;;;;;13.23;5.70;;;;;;;18.19;38.68;95599.56;5058399;28;20554;-56
2022/05/07 06:06:44;;;;;;;7.00;4.90;;;;;;;18.70;37.44;95600.41;5071033;28;20437;-60
2022/05/07 06:09:12;;;;;;;8.87;5.17;;;;;;;19.03;36.64;95591.41;5089710;28;20438;-55
2022/05/07 06:11:41;;;;;;;13.03;5.10;;;;;;;18.31;38.76;95602.56;5088994;28;20503;-51
2022/05/07 06:14:09;;;;;;;8.07;4.93;;;;;;;18.74;38.36;95601.44;5071523;28;20463;-59
2022/05/07 06:16:37;;;;;;;13.70;5.47;;;;;;;19.01;36.99;95601.50;5070979;28;20448;-55
2022/05/07 06:19:09;;;;;;;14.93;5.30;;;;;;;18.77;37.64;95598.22;5070478;28;20461;-57
2022/05/07 06:21:39;;;;;;;10.80;5.00;;;;;;;19.02;37.94;95604.97;5070719;28;20441;-63
2022/05/07 06:30:02;;;;;;;10.40;5.23;;;;;;;18.60;38.49;95597.94;5070578;28;20484;-63
2022/05/07 06:32:35;;;;;;;7.10;5.47;;;;;;;19.06;38.03;95598.00;5089377;28;20441;-60
2022/05/07 06:35:09;;;;;;;15.80;9.33;;;;;;;19.76;36.07;95590.66;5070843;28;20433;-58
2022/05/07 06:37:49;;;;;;;43.23;31.00;;;;;;;19.80;36.60;95587.09;5070874;28;20445;-61
2022/05/07 06:40:18;;;;;;;9.73;6.40;;;;;;;19.26;36.06;95583.56;5088875;28;20453;-61
2022/05/07 06:42:48;;;;;;;9.93;6.30;;;;;;;19.41;37.21;95593.97;5089351;28;20464;-58
2022/05/07 06:45:24;;;;;;;44.43;34.07;;;;;;;19.73;35.42;95581.38;5070587;28;20441;-58
2022/05/07 06:47:51;;;;;;;18.17;12.17;;;;;;;19.77;36.43;95584.25;5071301;28;20914;-65
2022/05/07 06:50:18;;;;;;;63.73;56.40;;;;;;;19.60;36.28;95582.16;5071087;28;20995;-60
2022/05/07 06:52:46;;;;;;;14.07;5.90;;;;;;;19.94;36.27;95581.78;5070930;28;20453;-58
2022/05/07 06:55:17;;;;;;;17.07;12.87;;;;;;;18.92;37.11;95595.28;5088613;28;20475;-60
2022/05/07 06:57:46;;;;;;;18.50;8.50;;;;;;;19.60;36.71;95584.03;5088998;28;20528;-59
2022/05/07 07:00:32;;;;;;;18.47;11.33;;;;;;;19.42;36.34;95595.53;5088588;28;20467;-58
2022/05/07 07:03:00;;;;;;;15.33;6.00;;;;;;;19.26;36.72;95592.34;5088779;28;20510;-62
2022/05/07 07:05:26;;;;;;;11.87;5.67;;;;;;;19.64;36.80;95582.38;5088549;28;20445;-62
2022/05/07 07:07:53;;;;;;;13.50;5.70;;;;;;;19.43;37.12;95584.63;5088845;28;20445;-55
2022/05/07 07:10:20;;;;;;;7.47;4.80;;;;;;;19.37;37.11;95582.34;5088608;28;20445;-56
2022/05/07 07:12:47;;;;;;;15.63;5.70;;;;;;;19.41;36.70;95578.03;5070707;28;20422;-57
2022/05/07 07:15:14;;;;;;;8.30;5.07;;;;;;;19.63;36.41;95575.50;5088557;28;20448;-59
2022/05/07 07:17:41;;;;;;;7.27;4.87;;;;;;;20.14;35.02;95562.75;5088935;28;20965;-60
2022/05/07 07:20:08;;;;;;;29.13;19.87;;;;;;;19.70;36.15;95570.56;5088836;28;20467;-62
2022/05/07 07:22:36;;;;;;;27.00;16.27;;;;;;;19.72;35.66;95563.06;5088432;28;20448;-59
2022/05/07 07:25:05;;;;;;;16.13;10.13;;;;;;;19.75;35.90;95565.13;5088415;28;21023;-60
2022/05/07 07:27:34;;;;;;;6.47;4.60;;;;;;;20.10;34.98;95557.22;5089282;28;20444;-65
2022/05/07 07:30:01;;;;;;;23.10;16.17;;;;;;;20.17;35.31;95554.19;5090639;28;20504;-67
2022/05/07 07:32:29;;;;;;;19.13;9.03;;;;;;;20.55;35.22;95554.66;5090276;28;20947;-61
2022/05/07 07:34:56;;;;;;;14.67;7.00;;;;;;;20.71;34.58;95554.00;5086206;28;20445;-62
2022/05/07 07:37:25;;;;;;;9.90;5.03;;;;;;;20.58;35.34;95548.75;5080796;28;20444;-58
2022/05/07 07:39:52;;;;;;;10.20;5.20;;;;;;;19.97;35.50;95555.38;5084973;28;20453;-60
2022/05/07 07:42:23;;;;;;;16.63;7.40;;;;;;;20.72;34.77;95554.78;5078135;28;20929;-61
2022/05/07 07:47:56;;;;;;;13.87;6.60;;;;;;;21.11;35.03;95547.69;5071559;28;20493;-67
2022/05/07 07:50:29;;;;;;;8.00;4.97;;;;;;;20.89;33.72;95545.03;5070813;28;21007;-66
2022/05/07 07:53:02;;;;;;;7.80;4.73;;;;;;;21.49;33.42;95537.41;5072183;28;20434;-63
2022/05/07 07:55:30;;;;;;;9.03;4.40;;;;;;;21.37;32.83;95549.72;5071428;28;20433;-63
2022/05/07 07:58:01;;;;;;;10.20;5.90;;;;;;;21.19;33.06;95543.50;5074120;28;20430;-57
2022/05/07 08:00:30;;;;;;;19.43;9.23;;;;;;;21.07;34.33;95540.63;5071010;28;20469;-54
2022/05/07 08:03:00;;;;;;;12.63;6.57;;;;;;;21.29;32.62;95543.25;5085888;28;20444;-57
2022/05/07 08:05:32;;;;;;;13.00;6.83;;;;;;;20.88;33.15;95542.66;5091488;28;20465;-60
2022/05/07 08:13:33;;;;;;;7.97;4.07;;;;;;;21.32;32.16;95531.19;5073678;28;21062;-60
2022/05/07 08:16:01;;;;;;;12.20;3.53;;;;;;;22.12;32.23;95544.94;5073458;28;20437;-56
2022/05/07 08:18:28;;;;;;;120.83;96.10;;;;;;;22.40;31.36;95534.78;5073548;28;20484;-56
2022/05/07 08:20:56;;;;;;;13.67;10.53;;;;;;;22.23;31.89;95535.53;5091388;28;20440;-59
2022/05/07 08:23:24;;;;;;;7.93;4.20;;;;;;;22.32;30.27;95523.00;5091526;28;20460;-57
2022/05/07 08:25:51;;;;;;;6.40;3.90;;;;;;;22.04;30.31;95543.84;5091101;28;20502;-63
2022/05/07 08:28:19;;;;;;;8.93;3.73;;;;;;;21.90;29.79;95537.06;5091482;28;20449;-62
2022/05/07 08:30:46;;;;;;;7.97;4.80;;;;;;;22.30;29.71;95541.19;5091167;28;20677;-59
2022/05/07 08:33:13;;;;;;;8.10;4.33;;;;;;;21.49;30.59;95545.41;5091761;28;20472;-65
2022/05/07 08:35:40;;;;;;;11.97;4.40;;;;;;;22.14;30.22;95542.75;5090659;28;20195;-68
2022/05/07 08:38:07;;;;;;;14.20;9.40;;;;;;;22.61;30.35;95538.44;5091589;28;20482;-68
2022/05/07 08:40:34;;;;;;;10.20;4.10;;;;;;;22.55;30.03;95524.44;5091688;28;20475;-65
2022/05/07 08:43:03;;;;;;;7.97;3.70;;;;;;;22.51;30.86;95536.84;5091411;28;20445;-57
2022/05/07 08:45:31;;;;;;;10.13;4.50;;;;;;;22.34;31.71;95536.81;5090957;28;20223;-60
2022/05/07 08:47:59;;;;;;;6.70;3.40;;;;;;;22.41;30.25;95537.13;5091135;28;20532;-61
2022/05/07 08:50:27;;;;;;;12.00;6.27;;;;;;;22.18;30.76;95525.03;5090850;28;20453;-72
2022/05/07 08:52:54;;;;;;;12.77;4.40;;;;;;;22.63;29.99;95534.34;5091497;28;20187;-61
2022/05/07 08:55:22;;;;;;;10.63;6.70;;;;;;;22.19;30.72;95534.59;5090833;28;20192;-68
2022/05/07 08:57:50;;;;;;;23.70;17.43;;;;;;;22.21;30.47;95527.06;5084222;28;20444;-68
2022/05/07 09:00:20;;;;;;;67.57;54.03;;;;;;;22.15;30.76;95528.34;5062368;28;20227;-62
2022/05/07 09:02:50;;;;;;;18.60;13.43;;;;;;;22.55;30.37;95534.31;5081045;28;20437;-60
2022/05/07 09:05:19;;;;;;;10.07;5.13;;;;;;;22.31;30.11;95532.13;5077946;28;20239;-61
2022/05/07 09:07:54;;;;;;;8.13;4.07;;;;;;;22.10;30.37;95526.59;5082000;28;20214;-63
2022/05/07 09:10:26;;;;;;;7.77;4.77;;;;;;;22.80;29.49;95528.97;5077229;28;20199;-66
2022/05/07 09:12:54;;;;;;;5.80;3.70;;;;;;;22.54;29.41;95522.84;5078684;28;20812;-63
2022/05/07 09:15:21;;;;;;;5.53;3.57;;;;;;;22.20;29.61;95512.16;5080885;28;20999;-62
2022/05/07 09:17:48;;;;;;;7.17;3.63;;;;;;;22.49;29.80;95517.66;5060364;28;20228;-61
2022/05/07 09:20:21;;;;;;;6.50;3.73;;;;;;;22.54;29.92;95503.34;5090342;28;20245;-63
2022/05/07 09:22:56;;;;;;;96.87;52.70;;;;;;;22.93;31.07;95517.34;5091117;28;20498;-67
2022/05/07 09:25:27;;;;;;;92.43;80.13;;;;;;;23.26;28.60;95504.19;5089885;28;20588;-69
2022/05/07 09:27:57;;;;;;;9.93;6.23;;;;;;;23.08;29.11;95506.09;5090830;28;20210;-66
2022/05/07 09:30:26;;;;;;;4.53;3.60;;;;;;;22.05;31.23;95516.06;5070281;28;20223;-68
2022/05/07 09:32:55;;;;;;;8.10;3.40;;;;;;;22.46;29.65;95496.94;5070542;28;20210;-67
2022/05/07 09:38:13;;;;;;;5.27;3.23;;;;;;;23.06;29.68;95492.28;5076950;28;20654;-62
2022/05/07 09:40:42;;;;;;;6.73;3.40;;;;;;;23.27;27.95;95489.69;5083199;28;20200;-71
2022/05/07 09:43:13;;;;;;;6.33;3.77;;;;;;;23.42;27.82;95480.38;5079600;28;20226;-63
2022/05/07 09:45:41;;;;;;;5.90;3.43;;;;;;;23.82;28.74;95485.06;5073899;28;20740;-65
2022/05/07 09:48:08;;;;;;;8.27;4.03;;;;;;;23.24;28.39;95484.22;5085600;28;20191;-65
2022/05/07 09:58:40;;;;;;;9.47;3.20;;;;;;;24.11;26.74;95462.84;5066952;28;20200;-64
2022/05/07 10:01:47;;;;;;;10.90;3.40;;;;;;;24.57;25.94;95462.63;5046650;28;20656;-63
2022/05/07 10:04:26;;;;;;;10.57;3.20;;;;;;;23.68;25.17;95470.34;5047737;28;20315;-61
2022/05/07 10:07:15;;;;;;;4.73;3.40;;;;;;;24.42;24.76;95459.75;5046524;28;20207;-58
2022/05/07 10:09:57;;;;;;;7.57;2.83;;;;;;;24.53;23.93;95464.38;5047122;28;20193;-57
2022/05/07 10:12:26;;;;;;;4.43;3.53;;;;;;;24.77;25.30;95451.09;5047275;28;20196;-64
2022/05/07 10:15:03;;;;;;;6.37;3.10;;;;;;;24.31;26.81;95461.25;5046803;28;20212;-55
2022/05/07 10:17:31;;;;;;;6.60;3.50;;;;;;;24.13;26.95;95452.59;5046015;28;20684;-64
2022/05/07 10:20:08;;;;;;;6.57;3.27;;;;;;;23.97;26.23;95454.25;5045780;28;20265;-66
2022/05/07 10:22:36;;;;;;;6.90;3.57;;;;;;;23.89;27.39;95457.75;5047823;28;20196;-68
2022/05/07 10:25:04;;;;;;;8.60;3.83;;;;;;;24.53;27.63;95445.63;5046676;28;20204;-71
2022/05/07 10:27:35;;;;;;;4.90;3.20;;;;;;;24.88;25.90;95444.19;5046479;28;20237;-61
2022/05/07 10:30:05;;;;;;;6.97;3.57;;;;;;;25.32;26.22;95428.38;5028103;28;20216;-61
2022/05/07 10:32:48;;;;;;;5.83;3.70;;;;;;;25.70;26.38;95436.88;5063103;28;20200;-61
2022/05/07 10:35:35;;;;;;;8.13;3.70;;;;;;;25.39;26.81;95442.03;5062298;28;20188;-58
2022/05/07 10:38:10;;;;;;;7.00;3.50;;;;;;;25.48;24.12;95434.66;5060774;28;20287;-65
2022/05/07 10:40:48;;;;;;;7.97;3.37;;;;;;;25.89;25.06;95426.34;5047821;28;20344;-66
2022/05/07 10:43:29;;;;;;;4.13;3.33;;;;;;;25.95;25.74;95424.97;5048363;28;20204;-72
2022/05/07 10:46:01;;;;;;;5.10;3.20;;;;;;;26.47;25.10;95431.13;5047924;28;20228;-58
2022/05/07 10:48:28;;;;;;;5.50;3.37;;;;;;;26.46;24.14;95424.16;5056460;28;20630;-65
2022/05/07 10:51:00;;;;;;;4.93;3.00;;;;;;;25.14;22.34;95410.94;5067820;28;20293;-61
2022/05/07 10:53:38;;;;;;;7.43;3.13;;;;;;;25.98;22.83;95416.25;5049896;28;20252;-64
2022/05/07 10:56:12;;;;;;;15.83;3.70;;;;;;;26.38;24.35;95411.66;5047396;28;20196;-64
2022/05/07 10:58:45;;;;;;;7.77;3.53;;;;;;;26.34;23.36;95408.09;5048206;28;20196;-65
2022/05/07 11:01:13;;;;;;;19.77;12.60;;;;;;;26.21;22.43;95416.53;5047502;28;20201;-60
2022/05/07 11:03:40;;;;;;;21.20;14.83;;;;;;;25.99;22.76;95412.44;5046818;28;20714;-68
2022/05/07 11:06:07;;;;;;;5.73;3.30;;;;;;;25.95;23.88;95415.03;5046075;28;20424;-64
2022/05/07 11:08:46;;;;;;;8.97;6.83;;;;;;;25.46;22.14;95412.75;5046934;28;20335;-60
2022/05/07 11:11:15;;;;;;;12.47;7.80;;;;;;;24.74;22.70;95419.56;5047112;28;20208;-59
2022/05/07 11:13:55;;;;;;;8.80;2.90;;;;;;;24.60;22.79;95416.38;5050784;28;20216;-67
2022/05/07 11:16:23;;;;;;;8.60;3.00;;;;;;;25.57;23.10;95413.84;5051755;28;20192;-66
2022/05/07 11:18:55;;;;;;;10.63;3.70;;;;;;;25.60;22.18;95413.94;5052825;28;20195;-60
2022/05/07 11:21:25;;;;;;;8.17;3.00;;;;;;;26.57;22.91;95406.41;5051997;28;20287;-62
2022/05/07 11:23:56;;;;;;;4.50;2.67;;;;;;;26.31;20.17;95406.09;5052661;28;20203;-65
2022/05/07 11:26:24;;;;;;;5.20;2.60;;;;;;;25.66;18.46;95406.47;5069311;28;20200;-57
2022/05/07 11:28:51;;;;;;;6.37;3.07;;;;;;;26.17;18.68;95416.44;5072344;28;20199;-63
2022/05/07 11:31:28;;;;;;;5.57;2.50;;;;;;;26.00;17.65;95405.97;5071496;28;20215;-58
2022/05/07 11:34:15;;;;;;;8.53;2.83;;;;;;;26.88;17.54;95395.72;5058423;28;20219;-59
2022/05/07 11:36:42;;;;;;;9.27;2.70;;;;;;;26.73;17.76;95384.97;5071960;28;20196;-63
2022/05/07 11:39:12;;;;;;;21.57;17.30;;;;;;;27.19;20.18;95380.75;5072864;28;20565;-65
2022/05/07 11:41:39;;;;;;;32.53;29.13;;;;;;;27.29;17.99;95372.91;5071739;28;20196;-71
2022/05/07 11:47:23;;;;;;;8.70;3.17;;;;;;;26.98;18.89;95381.00;5071863;28;20291;-66
2022/05/07 11:50:02;;;;;;;11.17;3.20;;;;;;;25.76;18.88;95368.44;5071917;28;20308;-61
2022/05/07 11:52:30;;;;;;;6.23;2.60;;;;;;;25.63;18.17;95366.88;5072216;28;20192;-68
2022/05/07 11:55:03;;;;;;;6.30;2.97;;;;;;;25.81;19.12;95378.91;5071922;28;20199;-63
2022/05/07 11:57:32;;;;;;;6.80;2.70;;;;;;;26.93;18.99;95373.97;5053426;28;20578;-59
2022/05/07 12:00:21;;;;;;;4.33;2.30;;;;;;;26.08;17.01;95370.13;5061710;28;20232;-57
2022/05/07 12:03:02;;;;;;;9.13;3.10;;;;;;;26.97;17.49;95355.22;5072492;28;20200;-62
2022/05/07 12:05:38;;;;;;;20.27;17.50;;;;;;;26.83;16.90;95354.88;5070077;28;20713;-68
2022/05/07 12:08:33;;;;;;;12.57;3.10;;;;;;;27.50;18.47;95349.19;5071497;28;20210;-61
2022/05/07 12:11:02;;;;;;;9.30;2.60;;;;;;;27.75;17.26;95347.03;5063397;28;20196;-63
2022/05/07 12:13:29;;;;;;;9.57;2.87;;;;;;;27.30;16.85;95355.63;5070844;28;20257;-63
2022/05/07 12:18:48;;;;;;;10.97;3.13;;;;;;;27.35;16.19;95343.84;5071848;28;20203;-68
2022/05/07 12:21:16;;;;;;;4.87;2.80;;;;;;;27.07;18.06;95343.16;5071228;28;20279;-65
2022/05/07 12:31:55;;;;;;;4.10;2.40;;;;;;;26.15;17.49;95337.34;5070771;28;20290;-64
2022/05/07 12:34:29;;;;;;;7.40;2.90;;;;;;;27.43;18.15;95343.66;5071452;28;20525;-69